KBYG/BYG METAR and TAF weather

Enter ICAO airport designator
Station Type Date Time Source
KBYG METAR 2019/02/23 22:53 UTC NOAA

KBYG 232253Z AUTO 34017G22KT 10SM BKN095 M01/M11 A2992 RMK AO2 SLP173 T10111111


Station Type Date Time Source
KBYG Decoded METAR 2019/02/23 22:53 UTC NOAA

BUFFALO JOHNSON COUNTY AIRPORT , WY, United States (KBYG) 44-23N 106-43W 1497M
Feb 23, 2019 - 05:53 PM EST / 2019.02.23 2253 UTC
Wind: from the NNW (340 degrees) at 20 MPH (17 KT) gusting to 25 MPH (22 KT):0
Visibility: 10 mile(s):0
Sky conditions: mostly cloudy
Temperature: 30.0 F (-1.1 C)
Windchill: 17 F (-8 C):1
Dew Point: 12.0 F (-11.1 C)
Relative Humidity: 46%
Pressure (altimeter): 29.92 in. Hg (1013 hPa)
ob: KBYG 232253Z AUTO 34017G22KT 10SM BKN095 M01/M11 A2992 RMK AO2 SLP173 T10111111
cycle: 23

Station Type Date Time Source
KBYG TAF UTC NOAA

Error!


Example: see airport list